Hammer Odde, Denmark
Current Conditions -  °F | °C
As of 5:20 PM on Thursday 29 Jan 2015 (Local Time) from EKRN Reporting Station
Rain Showers Rain Showers  
Wind Chill: 26°   Ceiling: 1700
Heat Index: 37°   Visibility: 6mi
Dew Point: 30°   Wind: 24mph
Humidity: 75%   Direction: 200°SSW
Pressure: 28.97"   Gusts: NA
Location:  55.3°N, 14.78°E
Report Text: EKRN 291620Z AUTO 20021KT 9999NDV -SHRA BKN017/// BKN054///03/M01 Q0981
Loading
Personal Weather Stations






























Interactive Weather Map New forecast layout! Learn more

10-Day Weather Forecast

Advertisements
Track Severe Weather on mobile